Time;durP1;ratioP1;P1;durP2;ratioP2;P2;SDS_P1;SDS_P2;PMS_P1;PMS_P2;Temp;Humidity;BMP_temperature;BMP_pressure;BME280_temperature;BME280_humidity;BME280_pressure;Samples;Min_cycle;Max_cycle;Signal;HPM_P1;HPM_P2
2022/08/08 00:00:35;;;;;;;0.75;0.60;;;;;;;;;;8408750;28;20028;-70
2022/08/08 00:04:48;;;;;;;1.00;0.63;;;;;;;;;;8408255;27;20027;-70
2022/08/08 00:08:54;;;;;;;1.58;0.70;;;;;;;;;;8408647;27;20039;-70
2022/08/08 00:13:01;;;;;;;1.60;0.70;;;;;;;;;;8409192;27;20040;-70
2022/08/08 00:17:08;;;;;;;0.85;0.70;;;;;;;;;;8407721;28;20507;-70
2022/08/08 00:21:13;;;;;;;3.33;0.70;;;;;;;;;;8407818;28;20023;-71
2022/08/08 00:25:16;;;;;;;1.20;0.60;;;;;;;;;;8408462;28;20042;-71
2022/08/08 00:29:21;;;;;;;0.55;0.55;;;;;;;;;;8409156;28;20111;-71
2022/08/08 00:33:25;;;;;;;1.95;0.80;;;;;;;;;;8409384;28;20040;-71
2022/08/08 00:37:44;;;;;;;1.25;0.70;;;;;;;;;;8408559;28;20550;-71
2022/08/08 00:42:02;;;;;;;1.00;0.70;;;;;;;;;;8408101;28;20138;-70
2022/08/08 00:46:02;;;;;;;0.60;0.60;;;;;;;;;;8406230;28;20046;-70
2022/08/08 00:50:11;;;;;;;1.45;0.63;;;;;;;;;;8407240;28;20122;-71
2022/08/08 00:54:23;;;;;;;0.68;0.68;;;;;;;;;;8409949;28;20351;-71
2022/08/08 00:58:34;;;;;;;0.70;0.60;;;;;;;;;;8407372;28;20032;-71
2022/08/08 01:02:53;;;;;;;1.60;0.60;;;;;;;;;;8405285;28;20123;-71
2022/08/08 01:07:12;;;;;;;0.80;0.50;;;;;;;;;;8405055;28;20039;-71
2022/08/08 01:11:15;;;;;;;0.60;0.60;;;;;;;;;;8406719;28;20081;-70
2022/08/08 01:15:21;;;;;;;1.13;0.70;;;;;;;;;;8407103;28;20016;-71
2022/08/08 01:19:24;;;;;;;1.10;0.65;;;;;;;;;;8408511;28;20179;-71
2022/08/08 01:23:41;;;;;;;1.50;0.60;;;;;;;;;;8406009;28;20027;-70
2022/08/08 01:27:53;;;;;;;0.93;0.60;;;;;;;;;;8406316;28;20590;-71
2022/08/08 01:31:59;;;;;;;1.45;0.80;;;;;;;;;;8407077;28;20150;-71
2022/08/08 01:36:23;;;;;;;2.20;0.80;;;;;;;;;;8404174;28;20130;-70
2022/08/08 01:40:29;;;;;;;1.37;0.70;;;;;;;;;;8407256;28;20500;-71
2022/08/08 01:44:35;;;;;;;0.50;0.50;;;;;;;;;;8404067;28;20272;-71
2022/08/08 01:48:44;;;;;;;0.60;0.60;;;;;;;;;;8407136;28;20162;-70
2022/08/08 01:52:45;;;;;;;0.65;0.65;;;;;;;;;;8405157;28;20428;-71
2022/08/08 01:56:57;;;;;;;0.93;0.80;;;;;;;;;;8408371;28;20140;-71
2022/08/08 02:01:10;;;;;;;1.25;0.70;;;;;;;;;;8404667;28;20032;-70
2022/08/08 02:05:34;;;;;;;0.50;0.50;;;;;;;;;;8411058;28;20035;-71
2022/08/08 02:09:43;;;;;;;0.68;0.60;;;;;;;;;;8411497;28;20338;-70
2022/08/08 02:13:49;;;;;;;0.60;0.60;;;;;;;;;;8412002;28;20024;-71
2022/08/08 02:17:50;;;;;;;0.77;0.68;;;;;;;;;;8411937;28;20507;-70
2022/08/08 02:26:35;;;;;;;0.63;0.60;;;;;;;;;;8412775;28;20042;-70
2022/08/08 02:30:35;;;;;;;0.77;0.77;;;;;;;;;;8412907;28;20040;-71
2022/08/08 02:34:53;;;;;;;1.15;0.60;;;;;;;;;;8415387;27;20108;-71
2022/08/08 02:39:08;;;;;;;1.27;0.70;;;;;;;;;;8413930;28;20138;-71
2022/08/08 02:43:27;;;;;;;1.13;0.57;;;;;;;;;;8376836;28;20311;-71
2022/08/08 02:47:46;;;;;;;0.60;0.60;;;;;;;;;;8412795;27;20054;-70
2022/08/08 02:51:52;;;;;;;1.27;0.60;;;;;;;;;;8409189;28;20055;-71
2022/08/08 02:56:00;;;;;;;0.90;0.60;;;;;;;;;;8412651;28;20929;-70
2022/08/08 03:00:00;;;;;;;3.40;0.70;;;;;;;;;;8410582;28;20012;-71
2022/08/08 03:04:14;;;;;;;1.08;0.63;;;;;;;;;;8410826;28;20046;-71
2022/08/08 03:08:14;;;;;;;;;;;;;;;;;;8410413;28;20459;-70
2022/08/08 03:12:32;;;;;;;1.40;0.60;;;;;;;;;;8408780;28;19993;-70
2022/08/08 03:16:42;;;;;;;2.00;0.80;;;;;;;;;;8409360;28;20040;-71
2022/08/08 03:20:46;;;;;;;1.40;0.73;;;;;;;;;;8385520;28;20032;-71
2022/08/08 03:24:46;;;;;;;1.48;0.90;;;;;;;;;;8413353;28;20119;-71
2022/08/08 03:28:48;;;;;;;1.08;0.60;;;;;;;;;;8410501;28;20893;-71
2022/08/08 03:37:15;;;;;;;2.08;0.70;;;;;;;;;;8411221;28;20038;-71
2022/08/08 03:41:15;;;;;;;1.75;0.70;;;;;;;;;;8409710;27;20035;-71
2022/08/08 03:45:17;;;;;;;1.35;0.75;;;;;;;;;;8411691;27;20027;-70
2022/08/08 03:49:19;;;;;;;0.85;0.60;;;;;;;;;;8408743;28;20048;-70
2022/08/08 03:53:20;;;;;;;0.50;0.50;;;;;;;;;;8390209;27;20581;-71
2022/08/08 03:57:21;;;;;;;1.40;0.70;;;;;;;;;;8390505;28;20035;-71
2022/08/08 04:01:21;;;;;;;0.98;0.60;;;;;;;;;;8407361;28;20035;-71
2022/08/08 04:05:23;;;;;;;1.60;0.70;;;;;;;;;;8411068;28;20028;-71
2022/08/08 04:09:23;;;;;;;0.85;0.70;;;;;;;;;;8408684;28;20019;-70
2022/08/08 04:13:23;;;;;;;3.28;0.80;;;;;;;;;;8407760;28;20491;-71
2022/08/08 04:17:24;;;;;;;0.93;0.73;;;;;;;;;;8409522;28;20039;-70
2022/08/08 04:21:24;;;;;;;3.95;0.65;;;;;;;;;;8408452;28;20024;-71
2022/08/08 04:25:24;;;;;;;0.73;0.73;;;;;;;;;;8408218;28;20431;-71
2022/08/08 04:29:25;;;;;;;1.17;0.70;;;;;;;;;;8407180;28;20027;-71
2022/08/08 04:33:25;;;;;;;2.05;0.80;;;;;;;;;;8405342;28;20469;-71
2022/08/08 04:37:25;;;;;;;0.52;0.52;;;;;;;;;;8407336;28;20609;-70
2022/08/08 04:41:25;;;;;;;0.80;0.60;;;;;;;;;;8409481;28;20024;-71
2022/08/08 04:45:26;;;;;;;1.48;0.73;;;;;;;;;;8406896;28;20031;-71
2022/08/08 04:49:26;;;;;;;2.92;0.70;;;;;;;;;;8405896;28;20039;-71
2022/08/08 04:53:26;;;;;;;3.17;0.80;;;;;;;;;;8408951;28;20076;-71
2022/08/08 04:57:26;;;;;;;3.60;0.73;;;;;;;;;;8405592;28;20467;-71
2022/08/08 05:01:27;;;;;;;2.78;0.68;;;;;;;;;;8407430;28;20771;-71
2022/08/08 05:05:27;;;;;;;2.17;0.80;;;;;;;;;;8390788;28;20055;-71
2022/08/08 05:09:27;;;;;;;1.52;0.68;;;;;;;;;;8409828;28;20100;-71
2022/08/08 05:13:27;;;;;;;0.73;0.60;;;;;;;;;;8404584;28;20394;-71
2022/08/08 05:17:27;;;;;;;4.75;0.80;;;;;;;;;;8407901;28;20036;-71
2022/08/08 05:21:28;;;;;;;4.03;0.70;;;;;;;;;;8407835;28;20028;-70
2022/08/08 05:25:28;;;;;;;0.88;0.73;;;;;;;;;;8409926;28;20068;-71
2022/08/08 05:29:28;;;;;;;2.85;0.60;;;;;;;;;;8407617;28;20353;-71
2022/08/08 05:33:28;;;;;;;0.65;0.60;;;;;;;;;;8406193;28;20042;-71
2022/08/08 05:37:30;;;;;;;1.75;0.77;;;;;;;;;;8405475;28;20112;-71
2022/08/08 05:41:32;;;;;;;3.08;0.70;;;;;;;;;;8413034;28;20491;-71
2022/08/08 05:45:36;;;;;;;2.05;0.60;;;;;;;;;;8413482;27;20048;-71
2022/08/08 05:49:39;;;;;;;1.65;0.70;;;;;;;;;;8414165;28;20272;-71
2022/08/08 05:53:39;;;;;;;3.03;0.70;;;;;;;;;;8413158;28;20554;-70
2022/08/08 05:57:39;;;;;;;1.35;0.80;;;;;;;;;;8413343;28;20055;-71
2022/08/08 06:01:40;;;;;;;4.57;0.80;;;;;;;;;;8411300;28;20031;-71
2022/08/08 06:05:48;;;;;;;7.50;0.80;;;;;;;;;;8414605;28;20118;-72
2022/08/08 06:09:50;;;;;;;1.38;0.60;;;;;;;;;;8413474;28;20024;-72
2022/08/08 06:13:50;;;;;;;1.02;0.60;;;;;;;;;;8413567;28;20322;-71
2022/08/08 06:17:50;;;;;;;1.58;0.60;;;;;;;;;;8413998;28;20040;-72
2022/08/08 06:21:51;;;;;;;0.70;0.60;;;;;;;;;;8413634;28;20023;-72
2022/08/08 06:26:05;;;;;;;3.08;0.60;;;;;;;;;;8413557;28;20329;-72
2022/08/08 06:30:09;;;;;;;0.60;0.60;;;;;;;;;;8409942;28;20102;-72
2022/08/08 06:34:14;;;;;;;1.35;0.60;;;;;;;;;;8409747;28;20543;-72
2022/08/08 06:38:26;;;;;;;0.85;0.70;;;;;;;;;;8412317;28;20042;-71
2022/08/08 06:42:28;;;;;;;2.05;0.70;;;;;;;;;;8411160;28;20635;-71
2022/08/08 06:46:28;;;;;;;0.68;0.52;;;;;;;;;;8413215;28;20552;-72
2022/08/08 06:50:31;;;;;;;1.63;0.67;;;;;;;;;;8412337;28;20449;-72
2022/08/08 06:54:31;;;;;;;0.73;0.57;;;;;;;;;;8415138;28;20266;-72
2022/08/08 06:58:32;;;;;;;2.37;0.80;;;;;;;;;;8411612;28;20051;-72
2022/08/08 07:02:33;;;;;;;4.32;0.70;;;;;;;;;;8413092;27;20100;-72
2022/08/08 07:06:36;;;;;;;0.60;0.57;;;;;;;;;;8414159;27;20145;-72
2022/08/08 07:10:39;;;;;;;0.70;0.60;;;;;;;;;;8413684;28;20030;-72
2022/08/08 07:14:39;;;;;;;;;;;;;;;;;;8413835;28;20027;-72
2022/08/08 07:18:45;;;;;;;1.48;0.73;;;;;;;;;;8412376;27;20501;-72
2022/08/08 07:23:01;;;;;;;1.20;0.70;;;;;;;;;;8416160;28;20028;-72
2022/08/08 07:27:04;;;;;;;1.40;0.75;;;;;;;;;;8414386;28;20023;-72
2022/08/08 07:31:04;;;;;;;1.42;0.75;;;;;;;;;;8385912;28;20080;-72
2022/08/08 07:35:05;;;;;;;1.88;0.80;;;;;;;;;;8413186;28;21090;-72
2022/08/08 07:39:05;;;;;;;2.97;0.73;;;;;;;;;;8412921;28;20255;-72
2022/08/08 07:43:06;;;;;;;1.48;0.70;;;;;;;;;;8409458;28;20028;-72
2022/08/08 07:47:06;;;;;;;0.93;0.75;;;;;;;;;;8411271;28;20070;-72
2022/08/08 07:51:08;;;;;;;1.27;0.65;;;;;;;;;;8410774;28;20023;-72
2022/08/08 07:55:08;;;;;;;2.35;0.70;;;;;;;;;;8409173;28;20027;-72
2022/08/08 07:59:13;;;;;;;0.87;0.70;;;;;;;;;;8390170;28;20476;-72
2022/08/08 08:03:21;;;;;;;1.13;0.80;;;;;;;;;;8409257;28;20388;-73
2022/08/08 08:07:21;;;;;;;2.80;1.10;;;;;;;;;;8411401;28;20040;-72
2022/08/08 08:11:22;;;;;;;1.67;0.70;;;;;;;;;;8412420;28;20117;-72
2022/08/08 08:15:24;;;;;;;1.60;0.75;;;;;;;;;;8410751;28;20487;-73
2022/08/08 08:19:29;;;;;;;2.03;0.70;;;;;;;;;;8409936;28;20029;-72
2022/08/08 08:23:29;;;;;;;0.50;0.50;;;;;;;;;;8409931;28;20083;-72
2022/08/08 08:27:29;;;;;;;2.75;0.80;;;;;;;;;;8409904;28;20039;-73
2022/08/08 08:31:30;;;;;;;1.13;0.70;;;;;;;;;;8406938;28;20038;-72
2022/08/08 08:35:30;;;;;;;1.73;0.68;;;;;;;;;;8405230;28;20043;-73
2022/08/08 08:39:31;;;;;;;0.80;0.80;;;;;;;;;;8409122;28;20027;-72
2022/08/08 08:43:32;;;;;;;1.58;0.80;;;;;;;;;;8407565;28;20732;-72
2022/08/08 08:47:33;;;;;;;3.05;0.88;;;;;;;;;;8409938;28;20142;-73
2022/08/08 08:51:37;;;;;;;0.70;0.70;;;;;;;;;;8408505;28;20024;-73
2022/08/08 08:55:38;;;;;;;1.58;0.70;;;;;;;;;;8389889;28;20020;-72
2022/08/08 08:59:40;;;;;;;1.10;0.80;;;;;;;;;;8409880;28;20034;-72
2022/08/08 09:03:42;;;;;;;1.92;0.70;;;;;;;;;;8410216;28;20035;-73
2022/08/08 09:07:42;;;;;;;2.53;0.88;;;;;;;;;;8411592;28;20333;-73
2022/08/08 09:11:44;;;;;;;2.20;0.70;;;;;;;;;;8389154;28;20396;-72
2022/08/08 09:15:44;;;;;;;1.88;0.80;;;;;;;;;;8409563;28;20070;-72
2022/08/08 09:19:47;;;;;;;0.93;0.80;;;;;;;;;;8407672;28;20023;-73
2022/08/08 09:23:48;;;;;;;1.05;0.73;;;;;;;;;;8408052;28;20111;-73
2022/08/08 09:27:48;;;;;;;1.10;0.60;;;;;;;;;;8410381;28;20028;-72
2022/08/08 09:31:54;;;;;;;0.98;0.75;;;;;;;;;;8408521;28;20657;-72
2022/08/08 09:35:54;;;;;;;1.17;0.80;;;;;;;;;;8408472;28;20023;-73
2022/08/08 09:40:05;;;;;;;1.50;0.80;;;;;;;;;;8411647;28;20376;-72
2022/08/08 09:44:09;;;;;;;0.77;0.70;;;;;;;;;;8410625;28;20015;-72
2022/08/08 09:48:09;;;;;;;2.42;0.77;;;;;;;;;;8408467;28;20028;-72
2022/08/08 09:52:09;;;;;;;2.07;0.70;;;;;;;;;;8396751;28;20035;-72
2022/08/08 09:56:10;;;;;;;0.95;0.70;;;;;;;;;;8410882;28;20092;-72
2022/08/08 10:00:11;;;;;;;2.53;0.73;;;;;;;;;;8409119;28;20641;-72
2022/08/08 10:04:13;;;;;;;3.15;0.82;;;;;;;;;;8413141;28;20592;-72
2022/08/08 10:08:13;;;;;;;;;;;;;;;;;;8409664;28;20190;-72
2022/08/08 10:12:14;;;;;;;1.35;0.85;;;;;;;;;;8408494;28;19912;-72
2022/08/08 10:16:14;;;;;;;1.73;0.80;;;;;;;;;;8389277;28;20035;-72
2022/08/08 10:20:14;;;;;;;1.73;0.70;;;;;;;;;;8408050;28;20807;-72
2022/08/08 10:24:15;;;;;;;3.60;0.80;;;;;;;;;;8407383;28;20008;-72
2022/08/08 10:28:16;;;;;;;1.67;1.00;;;;;;;;;;8415067;28;20095;-72
2022/08/08 10:32:36;;;;;;;1.70;0.80;;;;;;;;;;8413793;28;20111;-72
2022/08/08 10:36:39;;;;;;;1.05;0.80;;;;;;;;;;8414097;27;20031;-72
2022/08/08 10:40:40;;;;;;;2.00;0.80;;;;;;;;;;8414847;28;20795;-73
2022/08/08 10:44:40;;;;;;;2.57;1.23;;;;;;;;;;8416886;28;20028;-73
2022/08/08 10:48:44;;;;;;;4.00;0.80;;;;;;;;;;8411369;28;20038;-72
2022/08/08 10:52:44;;;;;;;2.35;0.80;;;;;;;;;;8413957;28;20472;-72
2022/08/08 10:56:44;;;;;;;0.70;0.70;;;;;;;;;;8417334;28;20027;-72
2022/08/08 11:00:44;;;;;;;2.72;0.77;;;;;;;;;;8415075;28;20028;-72
2022/08/08 11:04:45;;;;;;;0.80;0.80;;;;;;;;;;8416268;28;20074;-72
2022/08/08 11:08:46;;;;;;;3.65;0.70;;;;;;;;;;8410979;28;20503;-72
2022/08/08 11:12:50;;;;;;;2.58;0.80;;;;;;;;;;8412264;28;20031;-72
2022/08/08 11:16:50;;;;;;;1.00;0.70;;;;;;;;;;8412372;28;20122;-72
2022/08/08 11:20:52;;;;;;;0.70;0.70;;;;;;;;;;8409140;27;20063;-72
2022/08/08 11:24:52;;;;;;;;;;;;;;;;;;8394988;28;20392;-72
2022/08/08 11:28:54;;;;;;;0.60;0.60;;;;;;;;;;8390414;27;19915;-72
2022/08/08 11:32:57;;;;;;;3.97;0.85;;;;;;;;;;8409497;28;20043;-73
2022/08/08 11:36:58;;;;;;;3.85;0.90;;;;;;;;;;8411029;28;20664;-72
2022/08/08 11:40:59;;;;;;;0.82;0.70;;;;;;;;;;8410613;27;20019;-72
2022/08/08 11:44:59;;;;;;;1.70;0.90;;;;;;;;;;8409121;28;20032;-72
2022/08/08 11:49:00;;;;;;;3.80;0.90;;;;;;;;;;8410192;28;20031;-72
2022/08/08 11:53:01;;;;;;;2.53;0.90;;;;;;;;;;8411844;28;20467;-72
2022/08/08 11:57:09;;;;;;;2.38;0.80;;;;;;;;;;8403553;28;20377;-73
2022/08/08 12:01:09;;;;;;;2.88;0.70;;;;;;;;;;8406147;27;20171;-73
2022/08/08 12:05:10;;;;;;;1.45;0.85;;;;;;;;;;8411185;28;20349;-72
2022/08/08 12:09:10;;;;;;;3.77;0.80;;;;;;;;;;8411281;28;20043;-72
2022/08/08 12:13:13;;;;;;;1.17;0.85;;;;;;;;;;8407752;28;20043;-73
2022/08/08 12:17:13;;;;;;;0.63;0.63;;;;;;;;;;8411087;28;20035;-72
2022/08/08 12:21:23;;;;;;;1.35;0.85;;;;;;;;;;8408726;28;20593;-73
2022/08/08 12:25:26;;;;;;;0.93;0.70;;;;;;;;;;8407874;28;20495;-73
2022/08/08 12:29:26;;;;;;;1.23;0.75;;;;;;;;;;8413358;28;20744;-72
2022/08/08 12:33:26;;;;;;;3.85;0.77;;;;;;;;;;8411233;28;20059;-73
2022/08/08 12:37:30;;;;;;;0.73;0.70;;;;;;;;;;8410151;28;20030;-73
2022/08/08 12:41:32;;;;;;;1.15;0.73;;;;;;;;;;8407760;28;20042;-72
2022/08/08 12:45:32;;;;;;;;;;;;;;;;;;8410971;28;20115;-72
2022/08/08 12:49:34;;;;;;;1.10;0.70;;;;;;;;;;8408519;28;20249;-72
2022/08/08 12:53:34;;;;;;;3.88;0.80;;;;;;;;;;8409498;28;20412;-72
2022/08/08 12:57:34;;;;;;;1.00;0.65;;;;;;;;;;8410033;28;20032;-72
2022/08/08 13:01:35;;;;;;;1.23;0.65;;;;;;;;;;8410753;28;20044;-72
2022/08/08 13:05:36;;;;;;;3.13;0.80;;;;;;;;;;8413627;27;20087;-72
2022/08/08 13:09:38;;;;;;;1.43;0.70;;;;;;;;;;8409605;28;20505;-73
2022/08/08 13:13:38;;;;;;;;;;;;;;;;;;8411558;28;20063;-72
2022/08/08 13:17:38;;;;;;;1.55;0.80;;;;;;;;;;8409333;28;20402;-72
2022/08/08 13:21:42;;;;;;;0.60;0.60;;;;;;;;;;8408266;28;20036;-72
2022/08/08 13:25:42;;;;;;;0.85;0.70;;;;;;;;;;8407530;28;20019;-72
2022/08/08 13:30:03;;;;;;;0.60;0.60;;;;;;;;;;8406554;28;20510;-73
2022/08/08 13:34:05;;;;;;;0.70;0.70;;;;;;;;;;8400813;28;20040;-72
2022/08/08 13:38:05;;;;;;;1.13;0.77;;;;;;;;;;8410848;28;20054;-72
2022/08/08 13:42:05;;;;;;;1.73;0.70;;;;;;;;;;8409500;28;20397;-73
2022/08/08 13:46:13;;;;;;;1.13;0.70;;;;;;;;;;8410405;28;20119;-73
2022/08/08 13:50:19;;;;;;;1.33;0.80;;;;;;;;;;8392107;28;20068;-72
2022/08/08 13:54:20;;;;;;;2.60;0.70;;;;;;;;;;8412465;28;20027;-72
2022/08/08 13:58:20;;;;;;;1.20;0.77;;;;;;;;;;8408171;28;20869;-72
2022/08/08 14:02:24;;;;;;;1.15;0.80;;;;;;;;;;8413718;28;20846;-72
2022/08/08 14:06:25;;;;;;;1.63;0.90;;;;;;;;;;8420145;28;20202;-73
2022/08/08 14:10:25;;;;;;;1.20;0.70;;;;;;;;;;8417198;28;20443;-72
2022/08/08 14:14:35;;;;;;;0.73;0.73;;;;;;;;;;8418706;28;20024;-72
2022/08/08 14:18:36;;;;;;;1.65;0.65;;;;;;;;;;8413875;27;20145;-71
2022/08/08 14:22:38;;;;;;;2.47;0.77;;;;;;;;;;8394867;28;20031;-72
2022/08/08 14:26:44;;;;;;;2.08;0.65;;;;;;;;;;8413686;28;20023;-72
2022/08/08 14:30:44;;;;;;;1.48;0.80;;;;;;;;;;8393587;28;20127;-72
2022/08/08 14:34:51;;;;;;;2.50;0.80;;;;;;;;;;8415374;27;20055;-72
2022/08/08 14:38:51;;;;;;;2.92;0.80;;;;;;;;;;8412772;28;20107;-72
2022/08/08 14:42:53;;;;;;;1.70;0.80;;;;;;;;;;8412157;28;20059;-72
2022/08/08 14:46:57;;;;;;;3.33;0.73;;;;;;;;;;8412000;28;20055;-71
2022/08/08 14:51:03;;;;;;;2.63;0.80;;;;;;;;;;8385984;28;20286;-72
2022/08/08 14:55:04;;;;;;;1.83;0.80;;;;;;;;;;8416871;27;20579;-72
2022/08/08 14:59:04;;;;;;;2.28;0.90;;;;;;;;;;8411716;28;20503;-72
2022/08/08 15:03:04;;;;;;;1.80;0.70;;;;;;;;;;8411344;28;20169;-72
2022/08/08 15:07:05;;;;;;;2.20;0.80;;;;;;;;;;8412037;28;20024;-72
2022/08/08 15:11:06;;;;;;;1.77;1.00;;;;;;;;;;8411297;28;20020;-72
2022/08/08 15:15:07;;;;;;;1.70;0.80;;;;;;;;;;8391646;28;20069;-72
2022/08/08 15:19:07;;;;;;;0.65;0.65;;;;;;;;;;8411302;28;20020;-72
2022/08/08 15:23:07;;;;;;;1.02;0.88;;;;;;;;;;8410313;28;20016;-72
2022/08/08 15:27:08;;;;;;;3.08;0.70;;;;;;;;;;8414194;28;20044;-72
2022/08/08 15:31:09;;;;;;;2.93;0.90;;;;;;;;;;8413711;27;20043;-72
2022/08/08 15:35:09;;;;;;;0.95;0.70;;;;;;;;;;8412788;27;20048;-72
2022/08/08 15:39:09;;;;;;;2.60;0.90;;;;;;;;;;8413436;28;20450;-72
2022/08/08 15:43:10;;;;;;;3.13;0.70;;;;;;;;;;8410721;27;20027;-72
2022/08/08 15:47:11;;;;;;;0.80;0.67;;;;;;;;;;8412880;28;20150;-72
2022/08/08 15:51:12;;;;;;;1.37;0.70;;;;;;;;;;8411018;27;20472;-73
2022/08/08 15:55:12;;;;;;;1.83;0.75;;;;;;;;;;8389679;28;20185;-72
2022/08/08 15:59:13;;;;;;;0.70;0.70;;;;;;;;;;8408811;28;20055;-72
2022/08/08 16:03:13;;;;;;;1.07;0.70;;;;;;;;;;8410554;28;20093;-72
2022/08/08 16:07:14;;;;;;;0.60;0.60;;;;;;;;;;8412474;28;20080;-72
2022/08/08 16:11:15;;;;;;;2.73;0.90;;;;;;;;;;8411759;27;20019;-72
2022/08/08 16:15:15;;;;;;;2.22;0.80;;;;;;;;;;8412390;28;20629;-72
2022/08/08 16:19:15;;;;;;;1.33;0.70;;;;;;;;;;8411819;27;20118;-72
2022/08/08 16:23:15;;;;;;;1.20;0.70;;;;;;;;;;8414585;28;20023;-72
2022/08/08 16:27:16;;;;;;;1.20;0.80;;;;;;;;;;8410034;28;20039;-72
2022/08/08 16:31:18;;;;;;;1.00;0.70;;;;;;;;;;8388764;28;20101;-72
2022/08/08 16:35:18;;;;;;;1.52;0.60;;;;;;;;;;8411316;28;20411;-72
2022/08/08 16:39:19;;;;;;;1.53;0.70;;;;;;;;;;8411399;28;20125;-72
2022/08/08 16:43:19;;;;;;;0.80;0.80;;;;;;;;;;8410276;28;20020;-72
2022/08/08 16:47:27;;;;;;;2.30;0.60;;;;;;;;;;8409511;28;20054;-72
2022/08/08 16:51:27;;;;;;;1.55;0.77;;;;;;;;;;8409938;28;20032;-72
2022/08/08 16:55:27;;;;;;;2.55;0.90;;;;;;;;;;8411024;28;20310;-72
2022/08/08 16:59:27;;;;;;;1.02;0.70;;;;;;;;;;8410569;28;20452;-72
2022/08/08 17:03:27;;;;;;;3.42;0.70;;;;;;;;;;8411100;28;20653;-72
2022/08/08 17:07:28;;;;;;;2.00;0.80;;;;;;;;;;8408583;28;20636;-72
2022/08/08 17:11:30;;;;;;;0.60;0.60;;;;;;;;;;8407915;28;20024;-72
2022/08/08 17:15:30;;;;;;;1.05;0.68;;;;;;;;;;8408615;28;20027;-72
2022/08/08 17:19:30;;;;;;;2.65;0.65;;;;;;;;;;8410980;28;20058;-73
2022/08/08 17:23:31;;;;;;;2.63;0.80;;;;;;;;;;8409513;28;20016;-73
2022/08/08 17:27:31;;;;;;;0.68;0.68;;;;;;;;;;8408670;28;20036;-72
2022/08/08 17:31:31;;;;;;;1.05;0.70;;;;;;;;;;8405832;28;20059;-73
2022/08/08 17:35:32;;;;;;;3.15;0.90;;;;;;;;;;8414765;28;20438;-73
2022/08/08 17:39:33;;;;;;;2.95;0.82;;;;;;;;;;8418395;28;20081;-73
2022/08/08 17:43:33;;;;;;;1.80;0.67;;;;;;;;;;8416556;27;20680;-72
2022/08/08 17:47:34;;;;;;;3.10;0.70;;;;;;;;;;8414921;27;20569;-73
2022/08/08 17:51:35;;;;;;;1.85;0.70;;;;;;;;;;8415111;28;20030;-73
2022/08/08 17:55:35;;;;;;;1.33;0.70;;;;;;;;;;8399183;28;20023;-72
2022/08/08 17:59:36;;;;;;;4.45;0.80;;;;;;;;;;8413355;28;20038;-73
2022/08/08 18:03:36;;;;;;;2.20;0.80;;;;;;;;;;8415507;28;20404;-72
2022/08/08 18:07:36;;;;;;;1.10;0.73;;;;;;;;;;8413566;28;20261;-73
2022/08/08 18:11:37;;;;;;;3.07;0.77;;;;;;;;;;8414642;28;20544;-73
2022/08/08 18:15:37;;;;;;;1.30;0.70;;;;;;;;;;8414442;28;20851;-73
2022/08/08 18:19:37;;;;;;;1.95;0.75;;;;;;;;;;8414438;28;21067;-73
2022/08/08 18:23:38;;;;;;;2.67;0.82;;;;;;;;;;8413184;27;20239;-73
2022/08/08 18:27:38;;;;;;;1.58;0.80;;;;;;;;;;8413367;28;20089;-72
2022/08/08 18:31:38;;;;;;;5.53;0.80;;;;;;;;;;8412773;28;20100;-73
2022/08/08 18:35:39;;;;;;;2.83;0.70;;;;;;;;;;8414299;28;20080;-73
2022/08/08 18:39:39;;;;;;;4.13;0.90;;;;;;;;;;8416973;27;20024;-72
2022/08/08 18:43:39;;;;;;;2.28;0.70;;;;;;;;;;8416925;28;20087;-72
2022/08/08 18:47:39;;;;;;;3.85;0.80;;;;;;;;;;8412542;28;20047;-72
2022/08/08 18:51:40;;;;;;;2.15;0.82;;;;;;;;;;8412684;27;20694;-73
2022/08/08 18:55:40;;;;;;;2.95;0.80;;;;;;;;;;8415533;28;20096;-72
2022/08/08 18:59:40;;;;;;;0.63;0.63;;;;;;;;;;8413513;28;20468;-73
2022/08/08 19:03:40;;;;;;;1.90;0.70;;;;;;;;;;8413534;27;20118;-72
2022/08/08 19:07:40;;;;;;;1.50;0.60;;;;;;;;;;8416064;28;20544;-72
2022/08/08 19:11:41;;;;;;;2.63;0.70;;;;;;;;;;8415665;28;20043;-72
2022/08/08 19:15:41;;;;;;;0.60;0.60;;;;;;;;;;8413114;28;20024;-72
2022/08/08 19:19:41;;;;;;;0.85;0.80;;;;;;;;;;8395889;28;20142;-72
2022/08/08 19:23:41;;;;;;;3.05;0.80;;;;;;;;;;8414122;28;20016;-72
2022/08/08 19:27:42;;;;;;;2.08;0.75;;;;;;;;;;8413128;28;20043;-72
2022/08/08 19:31:42;;;;;;;5.17;0.70;;;;;;;;;;8418895;27;20941;-72
2022/08/08 19:35:42;;;;;;;2.40;1.00;;;;;;;;;;8414608;28;20293;-72
2022/08/08 19:39:43;;;;;;;5.47;0.85;;;;;;;;;;8415446;27;20023;-72
2022/08/08 19:43:43;;;;;;;5.15;1.35;;;;;;;;;;8411504;28;20318;-72
2022/08/08 19:47:44;;;;;;;1.27;0.98;;;;;;;;;;8393323;28;20040;-72
2022/08/08 19:51:44;;;;;;;1.97;0.77;;;;;;;;;;8412245;27;20024;-72
2022/08/08 19:55:44;;;;;;;1.63;0.80;;;;;;;;;;8412620;28;20050;-72
2022/08/08 19:59:45;;;;;;;1.38;0.80;;;;;;;;;;8412042;28;20277;-72
2022/08/08 20:03:45;;;;;;;1.10;0.70;;;;;;;;;;8409136;27;20032;-73
2022/08/08 20:07:45;;;;;;;0.98;0.80;;;;;;;;;;8411440;28;20201;-72
2022/08/08 20:11:45;;;;;;;1.70;0.73;;;;;;;;;;8392821;28;20050;-71
2022/08/08 20:15:45;;;;;;;2.33;1.10;;;;;;;;;;8394253;28;20032;-72
2022/08/08 20:19:54;;;;;;;4.93;1.00;;;;;;;;;;8439974;27;20903;-57
2022/08/08 20:23:54;;;;;;;0.80;0.70;;;;;;;;;;8416359;28;20021;-57
2022/08/08 20:27:55;;;;;;;2.40;0.80;;;;;;;;;;8415039;28;20012;-57
2022/08/08 20:31:55;;;;;;;1.65;0.80;;;;;;;;;;8389233;28;20052;-57
2022/08/08 20:35:55;;;;;;;1.97;0.80;;;;;;;;;;8359979;28;20029;-56
2022/08/08 20:39:55;;;;;;;0.70;0.70;;;;;;;;;;8356588;28;20025;-57
2022/08/08 20:43:59;;;;;;;1.40;0.87;;;;;;;;;;8358316;28;20021;-57
2022/08/08 20:47:59;;;;;;;1.65;0.80;;;;;;;;;;8358589;28;20286;-57
2022/08/08 20:51:59;;;;;;;3.40;0.80;;;;;;;;;;8359750;28;20020;-58
2022/08/08 20:55:59;;;;;;;1.02;0.70;;;;;;;;;;8359418;28;20024;-57
2022/08/08 21:00:00;;;;;;;2.97;0.80;;;;;;;;;;8357296;28;20040;-59
2022/08/08 21:04:00;;;;;;;1.35;0.80;;;;;;;;;;8389451;28;20040;-59
2022/08/08 21:08:00;;;;;;;1.15;0.90;;;;;;;;;;8390718;28;20028;-58
2022/08/08 21:12:01;;;;;;;0.70;0.70;;;;;;;;;;8391427;28;20028;-57
2022/08/08 21:16:01;;;;;;;1.83;0.75;;;;;;;;;;8390933;28;20032;-58
2022/08/08 21:20:02;;;;;;;1.10;0.70;;;;;;;;;;8389587;28;20020;-58
2022/08/08 21:24:02;;;;;;;5.18;0.80;;;;;;;;;;8391382;28;20016;-58
2022/08/08 21:28:03;;;;;;;6.07;0.90;;;;;;;;;;8384625;28;20028;-58
2022/08/08 21:32:06;;;;;;;3.55;0.70;;;;;;;;;;8368024;28;20271;-58
2022/08/08 21:36:13;;;;;;;2.60;0.80;;;;;;;;;;8367263;28;20027;-58
2022/08/08 21:40:13;;;;;;;1.70;0.85;;;;;;;;;;8367640;28;20030;-58
2022/08/08 21:44:14;;;;;;;1.48;0.70;;;;;;;;;;8366608;28;20020;-58
2022/08/08 21:48:14;;;;;;;2.05;0.80;;;;;;;;;;8368666;28;20098;-58
2022/08/08 21:52:14;;;;;;;3.47;0.80;;;;;;;;;;8371374;28;20410;-59
2022/08/08 21:56:14;;;;;;;1.55;0.80;;;;;;;;;;8370072;28;20024;-58
2022/08/08 22:00:15;;;;;;;1.85;0.70;;;;;;;;;;8366925;28;20028;-59
2022/08/08 22:04:15;;;;;;;3.15;1.15;;;;;;;;;;8369533;28;20017;-58
2022/08/08 22:08:15;;;;;;;2.20;0.90;;;;;;;;;;8372303;28;20652;-58
2022/08/08 22:12:15;;;;;;;2.63;0.80;;;;;;;;;;8373607;28;20028;-58
2022/08/08 22:16:16;;;;;;;0.88;0.75;;;;;;;;;;8372753;28;20098;-57
2022/08/08 22:20:16;;;;;;;5.10;0.80;;;;;;;;;;8371609;28;20092;-58
2022/08/08 22:24:17;;;;;;;0.80;0.70;;;;;;;;;;8374759;28;20797;-58
2022/08/08 22:28:18;;;;;;;1.10;0.80;;;;;;;;;;8371117;28;20028;-58
2022/08/08 22:32:19;;;;;;;1.27;0.70;;;;;;;;;;8372403;28;20828;-58
2022/08/08 22:36:19;;;;;;;3.33;0.85;;;;;;;;;;8375747;28;20032;-58
2022/08/08 22:40:19;;;;;;;1.90;0.80;;;;;;;;;;8372680;28;20017;-58
2022/08/08 22:44:19;;;;;;;1.27;0.80;;;;;;;;;;8375642;28;20064;-57
2022/08/08 22:48:19;;;;;;;1.37;0.90;;;;;;;;;;8375004;28;20123;-58
2022/08/08 22:52:20;;;;;;;0.90;0.90;;;;;;;;;;8373185;28;20028;-57
2022/08/08 22:56:20;;;;;;;1.38;0.80;;;;;;;;;;8370928;28;20103;-58
2022/08/08 23:00:20;;;;;;;0.93;0.93;;;;;;;;;;8366832;28;20860;-57
2022/08/08 23:04:22;;;;;;;1.00;0.90;;;;;;;;;;8373702;28;20030;-58
2022/08/08 23:08:22;;;;;;;1.40;0.90;;;;;;;;;;8374098;28;20126;-58
2022/08/08 23:12:22;;;;;;;2.20;0.93;;;;;;;;;;8371882;28;20020;-57
2022/08/08 23:16:22;;;;;;;1.58;1.05;;;;;;;;;;8374115;28;20043;-58
2022/08/08 23:20:22;;;;;;;3.33;1.00;;;;;;;;;;8372994;28;20499;-58
2022/08/08 23:24:23;;;;;;;3.42;1.13;;;;;;;;;;8371956;28;20035;-58
2022/08/08 23:28:23;;;;;;;2.30;1.10;;;;;;;;;;8370401;28;20116;-58
2022/08/08 23:32:23;;;;;;;1.00;1.00;;;;;;;;;;8371050;28;20044;-58
2022/08/08 23:36:23;;;;;;;3.15;1.10;;;;;;;;;;8371329;28;20291;-58
2022/08/08 23:40:23;;;;;;;1.33;1.05;;;;;;;;;;8373120;28;20012;-58
2022/08/08 23:44:24;;;;;;;1.27;1.17;;;;;;;;;;8363626;28;20032;-58
2022/08/08 23:48:24;;;;;;;2.67;1.13;;;;;;;;;;8356907;28;20048;-58
2022/08/08 23:52:24;;;;;;;1.30;1.10;;;;;;;;;;8363932;28;20025;-59
2022/08/08 23:56:24;;;;;;;3.58;1.27;;;;;;;;;;8358471;28;20017;-58
